sensor_id;sensor_type;location;lat;lon;timestamp;P1;durP1;ratioP1;P2;durP2;ratioP2
43529;SDS011;55654;50.966;6.878;2023-04-12T00:00:55;8.23;;;2.17;;
43529;SDS011;55654;50.966;6.878;2023-04-12T00:03:21;15.97;;;3.30;;
43529;SDS011;55654;50.966;6.878;2023-04-12T00:05:49;9.17;;;2.63;;
43529;SDS011;55654;50.966;6.878;2023-04-12T00:08:18;9.30;;;2.10;;
43529;SDS011;55654;50.966;6.878;2023-04-12T00:10:48;7.73;;;2.33;;
43529;SDS011;55654;50.966;6.878;2023-04-12T00:13:14;10.17;;;3.70;;
43529;SDS011;55654;50.966;6.878;2023-04-12T00:15:41;9.77;;;2.07;;
43529;SDS011;55654;50.966;6.878;2023-04-12T00:18:09;12.07;;;2.40;;
43529;SDS011;55654;50.966;6.878;2023-04-12T00:20:35;8.10;;;1.80;;
43529;SDS011;55654;50.966;6.878;2023-04-12T00:23:04;11.20;;;3.07;;
43529;SDS011;55654;50.966;6.878;2023-04-12T00:25:30;11.13;;;2.87;;
43529;SDS011;55654;50.966;6.878;2023-04-12T00:27:56;9.63;;;2.30;;
43529;SDS011;55654;50.966;6.878;2023-04-12T00:30:22;9.17;;;2.40;;
43529;SDS011;55654;50.966;6.878;2023-04-12T00:32:48;6.57;;;1.73;;
43529;SDS011;55654;50.966;6.878;2023-04-12T00:35:17;8.73;;;1.80;;
43529;SDS011;55654;50.966;6.878;2023-04-12T00:37:45;6.63;;;1.83;;
43529;SDS011;55654;50.966;6.878;2023-04-12T00:40:11;9.13;;;2.27;;
43529;SDS011;55654;50.966;6.878;2023-04-12T00:42:37;8.13;;;2.07;;
43529;SDS011;55654;50.966;6.878;2023-04-12T00:45:04;4.93;;;1.33;;
43529;SDS011;55654;50.966;6.878;2023-04-12T00:47:30;6.10;;;1.70;;
43529;SDS011;55654;50.966;6.878;2023-04-12T00:49:59;10.73;;;1.50;;
43529;SDS011;55654;50.966;6.878;2023-04-12T00:52:25;6.73;;;1.60;;
43529;SDS011;55654;50.966;6.878;2023-04-12T00:54:59;5.55;;;1.60;;
43529;SDS011;55654;50.966;6.878;2023-04-12T00:57:25;4.33;;;1.60;;
43529;SDS011;55654;50.966;6.878;2023-04-12T00:59:54;7.73;;;1.40;;
43529;SDS011;55654;50.966;6.878;2023-04-12T01:02:23;8.50;;;1.80;;
43529;SDS011;55654;50.966;6.878;2023-04-12T01:04:50;6.33;;;1.60;;
43529;SDS011;55654;50.966;6.878;2023-04-12T01:07:23;6.00;;;1.97;;
43529;SDS011;55654;50.966;6.878;2023-04-12T01:15:09;7.27;;;1.57;;
43529;SDS011;55654;50.966;6.878;2023-04-12T01:18:11;5.70;;;1.27;;
43529;SDS011;55654;50.966;6.878;2023-04-12T01:25:38;5.33;;;1.30;;
43529;SDS011;55654;50.966;6.878;2023-04-12T01:28:08;5.67;;;1.93;;
43529;SDS011;55654;50.966;6.878;2023-04-12T01:30:36;4.47;;;1.60;;
43529;SDS011;55654;50.966;6.878;2023-04-12T01:33:04;4.80;;;1.70;;
43529;SDS011;55654;50.966;6.878;2023-04-12T01:35:30;8.40;;;1.90;;
43529;SDS011;55654;50.966;6.878;2023-04-12T01:37:57;5.90;;;1.50;;
43529;SDS011;55654;50.966;6.878;2023-04-12T01:40:29;11.67;;;2.03;;
43529;SDS011;55654;50.966;6.878;2023-04-12T01:45:22;4.23;;;1.43;;
43529;SDS011;55654;50.966;6.878;2023-04-12T01:47:48;7.30;;;2.13;;
43529;SDS011;55654;50.966;6.878;2023-04-12T01:50:15;3.47;;;1.37;;
43529;SDS011;55654;50.966;6.878;2023-04-12T01:52:45;5.23;;;1.30;;
43529;SDS011;55654;50.966;6.878;2023-04-12T01:55:14;8.60;;;1.83;;
43529;SDS011;55654;50.966;6.878;2023-04-12T01:57:45;6.77;;;1.90;;
43529;SDS011;55654;50.966;6.878;2023-04-12T02:00:20;4.50;;;1.10;;
43529;SDS011;55654;50.966;6.878;2023-04-12T02:02:56;5.03;;;1.40;;
43529;SDS011;55654;50.966;6.878;2023-04-12T02:05:24;9.87;;;1.47;;
43529;SDS011;55654;50.966;6.878;2023-04-12T02:07:50;5.90;;;1.03;;
43529;SDS011;55654;50.966;6.878;2023-04-12T02:10:20;5.17;;;1.20;;
43529;SDS011;55654;50.966;6.878;2023-04-12T02:12:52;4.43;;;1.50;;
43529;SDS011;55654;50.966;6.878;2023-04-12T02:15:20;3.97;;;1.50;;
43529;SDS011;55654;50.966;6.878;2023-04-12T02:17:46;6.03;;;1.63;;
43529;SDS011;55654;50.966;6.878;2023-04-12T02:20:12;2.60;;;1.00;;
43529;SDS011;55654;50.966;6.878;2023-04-12T02:22:38;5.87;;;1.40;;
43529;SDS011;55654;50.966;6.878;2023-04-12T02:25:05;4.10;;;1.13;;
43529;SDS011;55654;50.966;6.878;2023-04-12T02:27:31;8.53;;;1.87;;
43529;SDS011;55654;50.966;6.878;2023-04-12T02:30:02;5.60;;;1.70;;
43529;SDS011;55654;50.966;6.878;2023-04-12T02:32:31;5.50;;;1.53;;
43529;SDS011;55654;50.966;6.878;2023-04-12T02:35:07;3.60;;;1.30;;
43529;SDS011;55654;50.966;6.878;2023-04-12T02:37:34;3.60;;;1.47;;
43529;SDS011;55654;50.966;6.878;2023-04-12T02:40:04;2.70;;;1.40;;
43529;SDS011;55654;50.966;6.878;2023-04-12T02:42:33;6.70;;;1.27;;
43529;SDS011;55654;50.966;6.878;2023-04-12T02:45:03;5.37;;;1.57;;
43529;SDS011;55654;50.966;6.878;2023-04-12T02:47:29;3.93;;;1.03;;
43529;SDS011;55654;50.966;6.878;2023-04-12T02:49:55;4.07;;;1.10;;
43529;SDS011;55654;50.966;6.878;2023-04-12T02:52:21;4.30;;;1.03;;
43529;SDS011;55654;50.966;6.878;2023-04-12T02:54:50;5.83;;;1.60;;
43529;SDS011;55654;50.966;6.878;2023-04-12T02:57:19;3.75;;;1.30;;
43529;SDS011;55654;50.966;6.878;2023-04-12T02:59:46;3.07;;;1.40;;
43529;SDS011;55654;50.966;6.878;2023-04-12T03:02:13;3.13;;;1.03;;
43529;SDS011;55654;50.966;6.878;2023-04-12T03:04:39;2.77;;;1.17;;
43529;SDS011;55654;50.966;6.878;2023-04-12T03:07:06;3.13;;;1.10;;
43529;SDS011;55654;50.966;6.878;2023-04-12T03:09:32;6.60;;;1.30;;
43529;SDS011;55654;50.966;6.878;2023-04-12T03:11:58;3.67;;;1.30;;
43529;SDS011;55654;50.966;6.878;2023-04-12T03:14:25;7.80;;;1.37;;
43529;SDS011;55654;50.966;6.878;2023-04-12T03:16:51;4.37;;;1.47;;
43529;SDS011;55654;50.966;6.878;2023-04-12T03:19:17;9.17;;;2.13;;
43529;SDS011;55654;50.966;6.878;2023-04-12T03:21:43;3.10;;;1.67;;
43529;SDS011;55654;50.966;6.878;2023-04-12T03:24:09;5.33;;;1.90;;
43529;SDS011;55654;50.966;6.878;2023-04-12T03:26:35;7.13;;;1.83;;
43529;SDS011;55654;50.966;6.878;2023-04-12T03:29:02;8.90;;;1.97;;
43529;SDS011;55654;50.966;6.878;2023-04-12T03:31:35;7.47;;;1.70;;
43529;SDS011;55654;50.966;6.878;2023-04-12T03:34:01;7.47;;;2.20;;
43529;SDS011;55654;50.966;6.878;2023-04-12T03:36:28;4.90;;;1.50;;
43529;SDS011;55654;50.966;6.878;2023-04-12T03:38:54;5.60;;;1.97;;
43529;SDS011;55654;50.966;6.878;2023-04-12T03:41:20;5.07;;;1.50;;
43529;SDS011;55654;50.966;6.878;2023-04-12T03:43:52;8.90;;;2.28;;
43529;SDS011;55654;50.966;6.878;2023-04-12T03:46:20;10.20;;;2.40;;
43529;SDS011;55654;50.966;6.878;2023-04-12T03:48:47;6.57;;;2.20;;
43529;SDS011;55654;50.966;6.878;2023-04-12T03:51:14;4.10;;;1.40;;
43529;SDS011;55654;50.966;6.878;2023-04-12T03:53:46;14.00;;;2.87;;
43529;SDS011;55654;50.966;6.878;2023-04-12T03:56:12;4.20;;;1.70;;
43529;SDS011;55654;50.966;6.878;2023-04-12T03:58:38;8.97;;;1.77;;
43529;SDS011;55654;50.966;6.878;2023-04-12T04:01:04;9.33;;;2.37;;
43529;SDS011;55654;50.966;6.878;2023-04-12T04:03:33;8.43;;;2.10;;
43529;SDS011;55654;50.966;6.878;2023-04-12T04:05:59;8.33;;;2.37;;
43529;SDS011;55654;50.966;6.878;2023-04-12T04:08:26;8.00;;;1.93;;
43529;SDS011;55654;50.966;6.878;2023-04-12T04:10:52;4.47;;;2.00;;
43529;SDS011;55654;50.966;6.878;2023-04-12T04:13:19;8.10;;;2.13;;
43529;SDS011;55654;50.966;6.878;2023-04-12T04:15:45;4.00;;;1.93;;
43529;SDS011;55654;50.966;6.878;2023-04-12T04:18:13;6.47;;;2.27;;
43529;SDS011;55654;50.966;6.878;2023-04-12T04:20:39;8.57;;;2.20;;
43529;SDS011;55654;50.966;6.878;2023-04-12T04:23:05;8.90;;;2.37;;
43529;SDS011;55654;50.966;6.878;2023-04-12T04:25:34;8.77;;;2.50;;
43529;SDS011;55654;50.966;6.878;2023-04-12T04:28:05;7.77;;;2.13;;
43529;SDS011;55654;50.966;6.878;2023-04-12T04:30:32;5.90;;;2.70;;
43529;SDS011;55654;50.966;6.878;2023-04-12T04:33:02;4.80;;;2.17;;
43529;SDS011;55654;50.966;6.878;2023-04-12T04:35:33;7.03;;;2.53;;
43529;SDS011;55654;50.966;6.878;2023-04-12T04:37:59;8.20;;;2.27;;
43529;SDS011;55654;50.966;6.878;2023-04-12T04:40:27;5.17;;;2.40;;
43529;SDS011;55654;50.966;6.878;2023-04-12T04:42:54;8.77;;;2.87;;
43529;SDS011;55654;50.966;6.878;2023-04-12T04:45:29;9.23;;;2.77;;
43529;SDS011;55654;50.966;6.878;2023-04-12T04:47:57;9.77;;;2.60;;
43529;SDS011;55654;50.966;6.878;2023-04-12T04:50:24;6.30;;;2.57;;
43529;SDS011;55654;50.966;6.878;2023-04-12T04:52:52;8.20;;;3.00;;
43529;SDS011;55654;50.966;6.878;2023-04-12T04:55:18;6.90;;;2.77;;
43529;SDS011;55654;50.966;6.878;2023-04-12T04:57:48;4.47;;;2.73;;
43529;SDS011;55654;50.966;6.878;2023-04-12T05:00:14;6.47;;;2.90;;
43529;SDS011;55654;50.966;6.878;2023-04-12T05:02:42;6.97;;;2.20;;
43529;SDS011;55654;50.966;6.878;2023-04-12T05:05:09;8.07;;;3.10;;
43529;SDS011;55654;50.966;6.878;2023-04-12T05:07:36;5.93;;;2.03;;
43529;SDS011;55654;50.966;6.878;2023-04-12T05:10:03;8.23;;;2.80;;
43529;SDS011;55654;50.966;6.878;2023-04-12T05:12:29;8.27;;;2.90;;
43529;SDS011;55654;50.966;6.878;2023-04-12T05:14:55;4.03;;;2.50;;
43529;SDS011;55654;50.966;6.878;2023-04-12T05:17:21;8.70;;;3.17;;
43529;SDS011;55654;50.966;6.878;2023-04-12T05:19:47;7.60;;;2.77;;
43529;SDS011;55654;50.966;6.878;2023-04-12T05:22:15;6.13;;;2.83;;
43529;SDS011;55654;50.966;6.878;2023-04-12T05:24:48;7.03;;;3.17;;
43529;SDS011;55654;50.966;6.878;2023-04-12T05:27:19;8.90;;;3.20;;
43529;SDS011;55654;50.966;6.878;2023-04-12T05:29:46;8.63;;;2.90;;
43529;SDS011;55654;50.966;6.878;2023-04-12T05:32:12;4.90;;;2.57;;
43529;SDS011;55654;50.966;6.878;2023-04-12T05:34:40;4.93;;;2.70;;
43529;SDS011;55654;50.966;6.878;2023-04-12T05:37:08;6.93;;;3.87;;
43529;SDS011;55654;50.966;6.878;2023-04-12T05:39:34;5.27;;;3.23;;
43529;SDS011;55654;50.966;6.878;2023-04-12T05:42:00;25.57;;;3.50;;
43529;SDS011;55654;50.966;6.878;2023-04-12T05:44:29;7.30;;;2.80;;
43529;SDS011;55654;50.966;6.878;2023-04-12T05:46:55;7.73;;;3.40;;
43529;SDS011;55654;50.966;6.878;2023-04-12T05:49:24;6.50;;;2.93;;
43529;SDS011;55654;50.966;6.878;2023-04-12T05:51:53;4.30;;;2.83;;
43529;SDS011;55654;50.966;6.878;2023-04-12T05:54:22;3.97;;;2.57;;
43529;SDS011;55654;50.966;6.878;2023-04-12T05:56:49;5.50;;;3.00;;
43529;SDS011;55654;50.966;6.878;2023-04-12T05:59:18;7.60;;;2.87;;
43529;SDS011;55654;50.966;6.878;2023-04-12T06:01:49;4.00;;;2.70;;
43529;SDS011;55654;50.966;6.878;2023-04-12T06:04:16;6.30;;;2.97;;
43529;SDS011;55654;50.966;6.878;2023-04-12T06:06:42;5.57;;;2.77;;
43529;SDS011;55654;50.966;6.878;2023-04-12T06:09:08;7.53;;;3.20;;
43529;SDS011;55654;50.966;6.878;2023-04-12T06:11:34;4.50;;;2.40;;
43529;SDS011;55654;50.966;6.878;2023-04-12T06:16:44;5.90;;;3.03;;
43529;SDS011;55654;50.966;6.878;2023-04-12T06:19:11;5.25;;;2.35;;
43529;SDS011;55654;50.966;6.878;2023-04-12T06:21:39;4.40;;;2.60;;
43529;SDS011;55654;50.966;6.878;2023-04-12T06:24:05;7.07;;;3.07;;
43529;SDS011;55654;50.966;6.878;2023-04-12T06:26:34;8.00;;;3.00;;
43529;SDS011;55654;50.966;6.878;2023-04-12T06:29:03;5.27;;;2.90;;
43529;SDS011;55654;50.966;6.878;2023-04-12T06:31:29;4.90;;;2.77;;
43529;SDS011;55654;50.966;6.878;2023-04-12T06:33:55;5.57;;;2.30;;
43529;SDS011;55654;50.966;6.878;2023-04-12T06:36:21;4.90;;;2.37;;
43529;SDS011;55654;50.966;6.878;2023-04-12T06:38:47;6.73;;;2.93;;
43529;SDS011;55654;50.966;6.878;2023-04-12T06:41:15;6.70;;;2.97;;
43529;SDS011;55654;50.966;6.878;2023-04-12T06:43:41;7.87;;;2.87;;
43529;SDS011;55654;50.966;6.878;2023-04-12T06:46:07;7.53;;;3.00;;
43529;SDS011;55654;50.966;6.878;2023-04-12T06:48:33;5.37;;;2.60;;
43529;SDS011;55654;50.966;6.878;2023-04-12T06:51:01;6.63;;;2.70;;
43529;SDS011;55654;50.966;6.878;2023-04-12T06:53:27;5.60;;;2.60;;
43529;SDS011;55654;50.966;6.878;2023-04-12T06:55:54;9.43;;;3.30;;
43529;SDS011;55654;50.966;6.878;2023-04-12T06:58:20;3.90;;;2.63;;
43529;SDS011;55654;50.966;6.878;2023-04-12T07:00:46;7.90;;;2.87;;
43529;SDS011;55654;50.966;6.878;2023-04-12T07:03:15;3.17;;;2.07;;
43529;SDS011;55654;50.966;6.878;2023-04-12T07:05:41;4.37;;;2.37;;
43529;SDS011;55654;50.966;6.878;2023-04-12T07:08:07;4.03;;;2.30;;
43529;SDS011;55654;50.966;6.878;2023-04-12T07:10:33;6.80;;;2.37;;
43529;SDS011;55654;50.966;6.878;2023-04-12T07:13:00;4.63;;;1.70;;
43529;SDS011;55654;50.966;6.878;2023-04-12T07:15:30;6.17;;;2.20;;
43529;SDS011;55654;50.966;6.878;2023-04-12T07:17:56;4.50;;;2.03;;
43529;SDS011;55654;50.966;6.878;2023-04-12T07:20:22;4.57;;;2.17;;
43529;SDS011;55654;50.966;6.878;2023-04-12T07:22:48;4.63;;;2.53;;
43529;SDS011;55654;50.966;6.878;2023-04-12T07:25:17;3.47;;;2.10;;
43529;SDS011;55654;50.966;6.878;2023-04-12T07:27:43;2.67;;;1.93;;
43529;SDS011;55654;50.966;6.878;2023-04-12T07:30:09;6.37;;;2.03;;
43529;SDS011;55654;50.966;6.878;2023-04-12T07:32:35;6.93;;;2.10;;
43529;SDS011;55654;50.966;6.878;2023-04-12T07:35:01;5.93;;;2.30;;
43529;SDS011;55654;50.966;6.878;2023-04-12T07:37:27;6.43;;;2.43;;
43529;SDS011;55654;50.966;6.878;2023-04-12T07:39:53;5.97;;;2.10;;
43529;SDS011;55654;50.966;6.878;2023-04-12T07:42:19;3.17;;;1.80;;
43529;SDS011;55654;50.966;6.878;2023-04-12T07:44:45;6.93;;;2.70;;
43529;SDS011;55654;50.966;6.878;2023-04-12T07:47:11;3.53;;;1.80;;
43529;SDS011;55654;50.966;6.878;2023-04-12T07:49:38;4.60;;;2.63;;
43529;SDS011;55654;50.966;6.878;2023-04-12T07:52:04;5.13;;;2.53;;
43529;SDS011;55654;50.966;6.878;2023-04-12T07:54:30;6.57;;;1.90;;
43529;SDS011;55654;50.966;6.878;2023-04-12T07:56:57;4.40;;;2.00;;
43529;SDS011;55654;50.966;6.878;2023-04-12T07:59:23;4.30;;;2.47;;
43529;SDS011;55654;50.966;6.878;2023-04-12T08:01:49;4.47;;;1.80;;
43529;SDS011;55654;50.966;6.878;2023-04-12T08:04:15;3.67;;;1.80;;
43529;SDS011;55654;50.966;6.878;2023-04-12T08:06:41;3.63;;;1.90;;
43529;SDS011;55654;50.966;6.878;2023-04-12T08:09:07;3.77;;;2.27;;
43529;SDS011;55654;50.966;6.878;2023-04-12T08:11:34;2.87;;;1.80;;
43529;SDS011;55654;50.966;6.878;2023-04-12T08:14:00;2.13;;;1.40;;
43529;SDS011;55654;50.966;6.878;2023-04-12T08:16:26;6.40;;;2.20;;
43529;SDS011;55654;50.966;6.878;2023-04-12T08:18:52;3.70;;;1.80;;
43529;SDS011;55654;50.966;6.878;2023-04-12T08:21:18;3.80;;;1.90;;
43529;SDS011;55654;50.966;6.878;2023-04-12T08:23:44;3.27;;;2.00;;
43529;SDS011;55654;50.966;6.878;2023-04-12T08:26:10;4.43;;;2.07;;
43529;SDS011;55654;50.966;6.878;2023-04-12T08:28:37;3.60;;;1.40;;
43529;SDS011;55654;50.966;6.878;2023-04-12T08:31:03;4.20;;;1.60;;
43529;SDS011;55654;50.966;6.878;2023-04-12T08:33:29;3.93;;;1.77;;
43529;SDS011;55654;50.966;6.878;2023-04-12T08:35:55;4.53;;;1.43;;
43529;SDS011;55654;50.966;6.878;2023-04-12T08:38:21;8.03;;;3.97;;
43529;SDS011;55654;50.966;6.878;2023-04-12T08:40:47;3.13;;;1.40;;
43529;SDS011;55654;50.966;6.878;2023-04-12T08:43:14;5.23;;;1.90;;
43529;SDS011;55654;50.966;6.878;2023-04-12T08:45:41;2.93;;;1.80;;
43529;SDS011;55654;50.966;6.878;2023-04-12T08:48:07;2.40;;;1.20;;
43529;SDS011;55654;50.966;6.878;2023-04-12T08:50:34;5.23;;;1.77;;
43529;SDS011;55654;50.966;6.878;2023-04-12T08:53:00;3.87;;;2.30;;
43529;SDS011;55654;50.966;6.878;2023-04-12T08:55:26;4.70;;;2.40;;
43529;SDS011;55654;50.966;6.878;2023-04-12T08:57:52;4.13;;;2.10;;
43529;SDS011;55654;50.966;6.878;2023-04-12T09:00:31;3.20;;;1.30;;
43529;SDS011;55654;50.966;6.878;2023-04-12T09:02:58;1.70;;;1.10;;
43529;SDS011;55654;50.966;6.878;2023-04-12T09:05:27;3.33;;;1.77;;
43529;SDS011;55654;50.966;6.878;2023-04-12T09:07:54;4.53;;;1.70;;
43529;SDS011;55654;50.966;6.878;2023-04-12T09:10:33;3.33;;;1.50;;
43529;SDS011;55654;50.966;6.878;2023-04-12T09:13:00;6.60;;;2.40;;
43529;SDS011;55654;50.966;6.878;2023-04-12T09:15:27;5.77;;;2.63;;
43529;SDS011;55654;50.966;6.878;2023-04-12T09:18:04;3.27;;;2.37;;
43529;SDS011;55654;50.966;6.878;2023-04-12T09:20:30;7.20;;;2.57;;
43529;SDS011;55654;50.966;6.878;2023-04-12T09:22:57;4.37;;;2.77;;
43529;SDS011;55654;50.966;6.878;2023-04-12T09:25:40;5.23;;;2.17;;
43529;SDS011;55654;50.966;6.878;2023-04-12T09:28:19;4.13;;;1.90;;
43529;SDS011;55654;50.966;6.878;2023-04-12T09:30:45;7.33;;;2.50;;
43529;SDS011;55654;50.966;6.878;2023-04-12T09:33:18;3.17;;;2.20;;
43529;SDS011;55654;50.966;6.878;2023-04-12T09:35:47;5.10;;;2.10;;
43529;SDS011;55654;50.966;6.878;2023-04-12T09:38:13;4.90;;;2.17;;
43529;SDS011;55654;50.966;6.878;2023-04-12T09:40:39;1.87;;;1.67;;
43529;SDS011;55654;50.966;6.878;2023-04-12T09:43:06;1.87;;;1.40;;
43529;SDS011;55654;50.966;6.878;2023-04-12T09:45:33;9.03;;;2.00;;
43529;SDS011;55654;50.966;6.878;2023-04-12T09:47:59;2.10;;;1.47;;
43529;SDS011;55654;50.966;6.878;2023-04-12T09:50:28;3.03;;;1.90;;
43529;SDS011;55654;50.966;6.878;2023-04-12T09:52:57;4.65;;;2.50;;
43529;SDS011;55654;50.966;6.878;2023-04-12T09:55:25;2.67;;;2.23;;
43529;SDS011;55654;50.966;6.878;2023-04-12T09:57:52;3.87;;;2.07;;
43529;SDS011;55654;50.966;6.878;2023-04-12T10:00:20;4.40;;;2.33;;
43529;SDS011;55654;50.966;6.878;2023-04-12T10:02:50;5.37;;;2.30;;
43529;SDS011;55654;50.966;6.878;2023-04-12T10:05:16;2.33;;;1.63;;
43529;SDS011;55654;50.966;6.878;2023-04-12T10:07:43;4.47;;;2.10;;
43529;SDS011;55654;50.966;6.878;2023-04-12T10:10:10;3.30;;;2.13;;
43529;SDS011;55654;50.966;6.878;2023-04-12T10:12:37;3.47;;;2.17;;
43529;SDS011;55654;50.966;6.878;2023-04-12T10:15:05;4.73;;;3.00;;
43529;SDS011;55654;50.966;6.878;2023-04-12T10:17:36;3.28;;;2.28;;
43529;SDS011;55654;50.966;6.878;2023-04-12T10:20:04;2.20;;;1.50;;
43529;SDS011;55654;50.966;6.878;2023-04-12T10:22:31;3.23;;;1.63;;
43529;SDS011;55654;50.966;6.878;2023-04-12T10:24:58;5.63;;;2.78;;
43529;SDS011;55654;50.966;6.878;2023-04-12T10:27:24;3.63;;;1.93;;
43529;SDS011;55654;50.966;6.878;2023-04-12T10:29:55;4.50;;;1.50;;
43529;SDS011;55654;50.966;6.878;2023-04-12T10:32:41;3.70;;;1.73;;
43529;SDS011;55654;50.966;6.878;2023-04-12T10:35:07;2.27;;;1.60;;
43529;SDS011;55654;50.966;6.878;2023-04-12T10:40:18;2.27;;;1.80;;
43529;SDS011;55654;50.966;6.878;2023-04-12T10:42:45;4.20;;;1.90;;
43529;SDS011;55654;50.966;6.878;2023-04-12T10:50:23;4.37;;;1.40;;
43529;SDS011;55654;50.966;6.878;2023-04-12T10:55:42;1.77;;;1.00;;
43529;SDS011;55654;50.966;6.878;2023-04-12T10:58:12;3.73;;;1.20;;
43529;SDS011;55654;50.966;6.878;2023-04-12T11:03:22;2.63;;;1.37;;
43529;SDS011;55654;50.966;6.878;2023-04-12T11:08:25;4.20;;;1.80;;
43529;SDS011;55654;50.966;6.878;2023-04-12T11:10:51;5.23;;;2.60;;
43529;SDS011;55654;50.966;6.878;2023-04-12T11:13:17;10.67;;;2.90;;
43529;SDS011;55654;50.966;6.878;2023-04-12T11:15:44;5.93;;;2.80;;
43529;SDS011;55654;50.966;6.878;2023-04-12T11:18:10;6.17;;;3.63;;
43529;SDS011;55654;50.966;6.878;2023-04-12T11:20:37;6.53;;;3.03;;
43529;SDS011;55654;50.966;6.878;2023-04-12T11:23:06;6.23;;;3.57;;
43529;SDS011;55654;50.966;6.878;2023-04-12T11:25:35;11.77;;;4.27;;
43529;SDS011;55654;50.966;6.878;2023-04-12T11:28:01;9.70;;;3.90;;
43529;SDS011;55654;50.966;6.878;2023-04-12T11:30:27;9.17;;;3.37;;
43529;SDS011;55654;50.966;6.878;2023-04-12T11:32:56;11.07;;;3.63;;
43529;SDS011;55654;50.966;6.878;2023-04-12T11:35:22;5.40;;;2.90;;
43529;SDS011;55654;50.966;6.878;2023-04-12T11:37:53;8.00;;;2.73;;
43529;SDS011;55654;50.966;6.878;2023-04-12T11:40:23;6.80;;;2.67;;
43529;SDS011;55654;50.966;6.878;2023-04-12T11:42:50;5.00;;;1.50;;
43529;SDS011;55654;50.966;6.878;2023-04-12T11:45:19;4.67;;;1.70;;
43529;SDS011;55654;50.966;6.878;2023-04-12T11:47:46;4.60;;;1.27;;
43529;SDS011;55654;50.966;6.878;2023-04-12T11:50:12;4.63;;;1.30;;
43529;SDS011;55654;50.966;6.878;2023-04-12T11:52:38;6.33;;;1.80;;
43529;SDS011;55654;50.966;6.878;2023-04-12T11:55:05;7.23;;;1.57;;
43529;SDS011;55654;50.966;6.878;2023-04-12T11:57:32;5.47;;;1.27;;
43529;SDS011;55654;50.966;6.878;2023-04-12T11:59:59;5.33;;;1.60;;
43529;SDS011;55654;50.966;6.878;2023-04-12T12:02:31;3.90;;;1.30;;
43529;SDS011;55654;50.966;6.878;2023-04-12T12:04:58;7.87;;;1.27;;
43529;SDS011;55654;50.966;6.878;2023-04-12T12:07:24;3.73;;;1.10;;
43529;SDS011;55654;50.966;6.878;2023-04-12T12:09:50;3.10;;;1.03;;
43529;SDS011;55654;50.966;6.878;2023-04-12T12:12:16;4.73;;;1.47;;
43529;SDS011;55654;50.966;6.878;2023-04-12T12:14:43;8.63;;;1.30;;
43529;SDS011;55654;50.966;6.878;2023-04-12T12:17:12;3.80;;;1.10;;
43529;SDS011;55654;50.966;6.878;2023-04-12T12:19:40;4.53;;;1.20;;
43529;SDS011;55654;50.966;6.878;2023-04-12T12:22:09;5.97;;;1.20;;
43529;SDS011;55654;50.966;6.878;2023-04-12T12:24:36;5.67;;;1.53;;
43529;SDS011;55654;50.966;6.878;2023-04-12T12:27:02;7.23;;;1.23;;
43529;SDS011;55654;50.966;6.878;2023-04-12T12:29:37;2.87;;;1.63;;
43529;SDS011;55654;50.966;6.878;2023-04-12T12:32:10;5.30;;;1.77;;
43529;SDS011;55654;50.966;6.878;2023-04-12T12:34:36;6.30;;;1.03;;
43529;SDS011;55654;50.966;6.878;2023-04-12T12:37:06;3.93;;;0.90;;
43529;SDS011;55654;50.966;6.878;2023-04-12T12:39:32;6.13;;;1.40;;
43529;SDS011;55654;50.966;6.878;2023-04-12T12:41:59;5.40;;;1.03;;
43529;SDS011;55654;50.966;6.878;2023-04-12T12:44:26;8.30;;;1.17;;
43529;SDS011;55654;50.966;6.878;2023-04-12T12:46:57;10.90;;;1.50;;
43529;SDS011;55654;50.966;6.878;2023-04-12T12:49:23;4.73;;;1.00;;
43529;SDS011;55654;50.966;6.878;2023-04-12T12:51:49;5.57;;;1.50;;
43529;SDS011;55654;50.966;6.878;2023-04-12T12:54:16;8.40;;;1.20;;
43529;SDS011;55654;50.966;6.878;2023-04-12T12:56:42;5.93;;;1.70;;
43529;SDS011;55654;50.966;6.878;2023-04-12T12:59:08;4.53;;;1.23;;
43529;SDS011;55654;50.966;6.878;2023-04-12T13:01:34;6.63;;;1.37;;
43529;SDS011;55654;50.966;6.878;2023-04-12T13:04:00;5.40;;;1.30;;
43529;SDS011;55654;50.966;6.878;2023-04-12T13:06:26;6.57;;;1.47;;
43529;SDS011;55654;50.966;6.878;2023-04-12T13:08:53;7.27;;;1.40;;
43529;SDS011;55654;50.966;6.878;2023-04-12T13:11:19;12.17;;;2.00;;
43529;SDS011;55654;50.966;6.878;2023-04-12T13:13:47;8.70;;;1.37;;
43529;SDS011;55654;50.966;6.878;2023-04-12T13:16:16;7.63;;;1.30;;
43529;SDS011;55654;50.966;6.878;2023-04-12T13:18:42;8.50;;;1.40;;
43529;SDS011;55654;50.966;6.878;2023-04-12T13:21:08;9.77;;;1.97;;
43529;SDS011;55654;50.966;6.878;2023-04-12T13:23:34;10.90;;;1.67;;
43529;SDS011;55654;50.966;6.878;2023-04-12T13:26:00;9.07;;;2.03;;
43529;SDS011;55654;50.966;6.878;2023-04-12T13:28:26;9.43;;;1.63;;
43529;SDS011;55654;50.966;6.878;2023-04-12T13:30:55;6.40;;;1.43;;
43529;SDS011;55654;50.966;6.878;2023-04-12T13:33:21;6.13;;;1.53;;
43529;SDS011;55654;50.966;6.878;2023-04-12T13:35:47;8.80;;;2.50;;
43529;SDS011;55654;50.966;6.878;2023-04-12T13:38:13;10.83;;;2.17;;
43529;SDS011;55654;50.966;6.878;2023-04-12T13:40:39;9.67;;;1.30;;
43529;SDS011;55654;50.966;6.878;2023-04-12T13:43:07;10.20;;;1.60;;
43529;SDS011;55654;50.966;6.878;2023-04-12T13:45:33;13.50;;;2.27;;
43529;SDS011;55654;50.966;6.878;2023-04-12T13:48:00;7.73;;;2.13;;
43529;SDS011;55654;50.966;6.878;2023-04-12T13:50:26;9.47;;;1.60;;
43529;SDS011;55654;50.966;6.878;2023-04-12T13:52:52;5.73;;;1.50;;
43529;SDS011;55654;50.966;6.878;2023-04-12T13:55:18;7.70;;;1.90;;
43529;SDS011;55654;50.966;6.878;2023-04-12T13:57:44;8.27;;;1.90;;
43529;SDS011;55654;50.966;6.878;2023-04-12T14:00:10;9.40;;;1.90;;
43529;SDS011;55654;50.966;6.878;2023-04-12T14:02:37;10.37;;;2.93;;
43529;SDS011;55654;50.966;6.878;2023-04-12T14:05:10;8.73;;;1.87;;
43529;SDS011;55654;50.966;6.878;2023-04-12T14:07:36;9.40;;;1.87;;
43529;SDS011;55654;50.966;6.878;2023-04-12T14:10:02;11.87;;;2.10;;
43529;SDS011;55654;50.966;6.878;2023-04-12T14:12:28;11.40;;;2.20;;
43529;SDS011;55654;50.966;6.878;2023-04-12T14:14:57;9.43;;;2.00;;
43529;SDS011;55654;50.966;6.878;2023-04-12T14:17:23;10.37;;;1.93;;
43529;SDS011;55654;50.966;6.878;2023-04-12T14:19:52;15.10;;;1.83;;
43529;SDS011;55654;50.966;6.878;2023-04-12T14:22:18;13.47;;;2.30;;
43529;SDS011;55654;50.966;6.878;2023-04-12T14:24:44;14.30;;;2.43;;
43529;SDS011;55654;50.966;6.878;2023-04-12T14:27:10;10.53;;;2.57;;
43529;SDS011;55654;50.966;6.878;2023-04-12T14:29:39;7.63;;;1.77;;
43529;SDS011;55654;50.966;6.878;2023-04-12T14:32:07;11.80;;;1.80;;
43529;SDS011;55654;50.966;6.878;2023-04-12T14:34:41;8.30;;;1.90;;
43529;SDS011;55654;50.966;6.878;2023-04-12T14:37:10;9.63;;;1.83;;
43529;SDS011;55654;50.966;6.878;2023-04-12T14:39:36;6.33;;;1.47;;
43529;SDS011;55654;50.966;6.878;2023-04-12T14:42:02;6.77;;;1.60;;
43529;SDS011;55654;50.966;6.878;2023-04-12T14:44:28;9.63;;;1.87;;
43529;SDS011;55654;50.966;6.878;2023-04-12T14:46:55;8.20;;;1.77;;
43529;SDS011;55654;50.966;6.878;2023-04-12T14:49:21;7.03;;;1.73;;
43529;SDS011;55654;50.966;6.878;2023-04-12T14:51:47;6.87;;;1.50;;
43529;SDS011;55654;50.966;6.878;2023-04-12T14:54:13;11.60;;;1.53;;
43529;SDS011;55654;50.966;6.878;2023-04-12T14:56:42;7.03;;;1.57;;
43529;SDS011;55654;50.966;6.878;2023-04-12T14:59:11;11.63;;;1.65;;
43529;SDS011;55654;50.966;6.878;2023-04-12T15:01:37;8.37;;;1.50;;
43529;SDS011;55654;50.966;6.878;2023-04-12T15:04:03;4.30;;;1.23;;
43529;SDS011;55654;50.966;6.878;2023-04-12T15:06:30;9.40;;;1.67;;
43529;SDS011;55654;50.966;6.878;2023-04-12T15:09:01;4.60;;;1.03;;
43529;SDS011;55654;50.966;6.878;2023-04-12T15:11:28;3.77;;;0.80;;
43529;SDS011;55654;50.966;6.878;2023-04-12T15:13:57;12.70;;;1.17;;
43529;SDS011;55654;50.966;6.878;2023-04-12T15:16:24;4.37;;;1.17;;
43529;SDS011;55654;50.966;6.878;2023-04-12T15:18:50;5.87;;;1.53;;